sensor_id;sensor_type;location;lat;lon;timestamp;temperature;humidity
76537;DHT22;65381;51.254;15.592;2023-06-04T00:01:33;7.70;39.10
76537;DHT22;65381;51.254;15.592;2023-06-04T00:04:01;7.70;39.10
76537;DHT22;65381;51.254;15.592;2023-06-04T00:06:29;7.60;39.20
76537;DHT22;65381;51.254;15.592;2023-06-04T00:08:57;7.80;39.20
76537;DHT22;65381;51.254;15.592;2023-06-04T00:11:25;7.80;39.30
76537;DHT22;65381;51.254;15.592;2023-06-04T00:13:54;7.90;39.20
76537;DHT22;65381;51.254;15.592;2023-06-04T00:16:22;8.00;39.20
76537;DHT22;65381;51.254;15.592;2023-06-04T00:18:50;8.00;39.20
76537;DHT22;65381;51.254;15.592;2023-06-04T00:21:17;8.00;39.30
76537;DHT22;65381;51.254;15.592;2023-06-04T00:23:45;8.00;39.40
76537;DHT22;65381;51.254;15.592;2023-06-04T00:26:13;8.00;39.40
76537;DHT22;65381;51.254;15.592;2023-06-04T00:28:46;7.90;39.50
76537;DHT22;65381;51.254;15.592;2023-06-04T00:31:13;7.80;39.50
76537;DHT22;65381;51.254;15.592;2023-06-04T00:33:42;7.80;39.60
76537;DHT22;65381;51.254;15.592;2023-06-04T00:36:10;7.80;39.70
76537;DHT22;65381;51.254;15.592;2023-06-04T00:38:38;7.80;39.70
76537;DHT22;65381;51.254;15.592;2023-06-04T00:41:05;7.80;39.70
76537;DHT22;65381;51.254;15.592;2023-06-04T00:43:35;7.70;39.80
76537;DHT22;65381;51.254;15.592;2023-06-04T00:46:05;7.60;39.80
76537;DHT22;65381;51.254;15.592;2023-06-04T00:48:33;7.60;39.80
76537;DHT22;65381;51.254;15.592;2023-06-04T00:51:01;7.50;39.90
76537;DHT22;65381;51.254;15.592;2023-06-04T00:53:29;7.50;40.00
76537;DHT22;65381;51.254;15.592;2023-06-04T00:55:57;7.50;40.00
76537;DHT22;65381;51.254;15.592;2023-06-04T00:58:25;7.50;40.00
76537;DHT22;65381;51.254;15.592;2023-06-04T01:00:55;7.40;40.10
76537;DHT22;65381;51.254;15.592;2023-06-04T01:03:27;7.30;40.10
76537;DHT22;65381;51.254;15.592;2023-06-04T01:06:08;7.20;40.20
76537;DHT22;65381;51.254;15.592;2023-06-04T01:08:40;7.10;40.30
76537;DHT22;65381;51.254;15.592;2023-06-04T01:11:12;7.00;40.30
76537;DHT22;65381;51.254;15.592;2023-06-04T01:13:39;6.90;40.40
76537;DHT22;65381;51.254;15.592;2023-06-04T01:16:10;6.90;40.50
76537;DHT22;65381;51.254;15.592;2023-06-04T01:18:39;6.80;40.50
76537;DHT22;65381;51.254;15.592;2023-06-04T01:21:10;6.70;40.60
76537;DHT22;65381;51.254;15.592;2023-06-04T01:23:49;6.80;40.70
76537;DHT22;65381;51.254;15.592;2023-06-04T01:26:30;6.80;40.70
76537;DHT22;65381;51.254;15.592;2023-06-04T01:29:00;6.90;40.70
76537;DHT22;65381;51.254;15.592;2023-06-04T01:31:29;7.00;40.80
76537;DHT22;65381;51.254;15.592;2023-06-04T01:34:00;7.00;41.10
76537;DHT22;65381;51.254;15.592;2023-06-04T01:36:29;7.00;41.20
76537;DHT22;65381;51.254;15.592;2023-06-04T01:38:57;7.10;41.30
76537;DHT22;65381;51.254;15.592;2023-06-04T01:41:26;7.20;41.40
76537;DHT22;65381;51.254;15.592;2023-06-04T01:43:54;7.30;41.50
76537;DHT22;65381;51.254;15.592;2023-06-04T01:46:22;7.30;41.50
76537;DHT22;65381;51.254;15.592;2023-06-04T01:48:50;7.30;41.50
76537;DHT22;65381;51.254;15.592;2023-06-04T01:51:18;7.20;41.60
76537;DHT22;65381;51.254;15.592;2023-06-04T01:53:46;7.00;41.70
76537;DHT22;65381;51.254;15.592;2023-06-04T01:56:13;7.00;41.80
76537;DHT22;65381;51.254;15.592;2023-06-04T01:58:42;6.80;41.80
76537;DHT22;65381;51.254;15.592;2023-06-04T02:01:09;6.70;41.90
76537;DHT22;65381;51.254;15.592;2023-06-04T02:03:37;6.60;42.00
76537;DHT22;65381;51.254;15.592;2023-06-04T02:06:05;6.50;42.00
76537;DHT22;65381;51.254;15.592;2023-06-04T02:08:35;6.50;42.00
76537;DHT22;65381;51.254;15.592;2023-06-04T02:11:03;6.60;42.10
76537;DHT22;65381;51.254;15.592;2023-06-04T02:13:32;6.80;42.00
76537;DHT22;65381;51.254;15.592;2023-06-04T02:15:59;6.90;42.00
76537;DHT22;65381;51.254;15.592;2023-06-04T02:18:27;7.00;42.00
76537;DHT22;65381;51.254;15.592;2023-06-04T02:20:57;7.00;42.00
76537;DHT22;65381;51.254;15.592;2023-06-04T02:23:25;7.00;42.10
76537;DHT22;65381;51.254;15.592;2023-06-04T02:25:53;7.00;42.20
76537;DHT22;65381;51.254;15.592;2023-06-04T02:28:22;7.10;42.30
76537;DHT22;65381;51.254;15.592;2023-06-04T02:30:50;7.20;42.50
76537;DHT22;65381;51.254;15.592;2023-06-04T02:33:18;7.20;42.50
76537;DHT22;65381;51.254;15.592;2023-06-04T02:35:46;7.20;42.50
76537;DHT22;65381;51.254;15.592;2023-06-04T02:38:14;7.20;42.40
76537;DHT22;65381;51.254;15.592;2023-06-04T02:40:42;7.20;42.50
76537;DHT22;65381;51.254;15.592;2023-06-04T02:43:30;7.20;42.50
76537;DHT22;65381;51.254;15.592;2023-06-04T02:45:58;7.20;42.60
76537;DHT22;65381;51.254;15.592;2023-06-04T02:48:27;7.10;42.70
76537;DHT22;65381;51.254;15.592;2023-06-04T02:50:55;7.00;42.80
76537;DHT22;65381;51.254;15.592;2023-06-04T02:53:23;7.00;42.90
76537;DHT22;65381;51.254;15.592;2023-06-04T02:55:51;7.00;43.00
76537;DHT22;65381;51.254;15.592;2023-06-04T02:58:20;7.00;43.00
76537;DHT22;65381;51.254;15.592;2023-06-04T03:00:52;7.00;43.10
76537;DHT22;65381;51.254;15.592;2023-06-04T03:03:21;7.00;43.10
76537;DHT22;65381;51.254;15.592;2023-06-04T03:05:49;6.90;43.10
76537;DHT22;65381;51.254;15.592;2023-06-04T03:08:17;6.80;43.20
76537;DHT22;65381;51.254;15.592;2023-06-04T03:10:45;6.70;43.30
76537;DHT22;65381;51.254;15.592;2023-06-04T03:13:13;6.60;43.40
76537;DHT22;65381;51.254;15.592;2023-06-04T03:15:40;6.50;43.50
76537;DHT22;65381;51.254;15.592;2023-06-04T03:18:08;6.50;43.40
76537;DHT22;65381;51.254;15.592;2023-06-04T03:20:36;6.40;43.50
76537;DHT22;65381;51.254;15.592;2023-06-04T03:23:06;6.50;43.60
76537;DHT22;65381;51.254;15.592;2023-06-04T03:25:34;6.50;43.60
76537;DHT22;65381;51.254;15.592;2023-06-04T03:28:02;6.60;43.70
76537;DHT22;65381;51.254;15.592;2023-06-04T03:30:30;6.70;43.80
76537;DHT22;65381;51.254;15.592;2023-06-04T03:33:00;6.80;43.80
76537;DHT22;65381;51.254;15.592;2023-06-04T03:35:28;6.90;43.70
76537;DHT22;65381;51.254;15.592;2023-06-04T03:37:56;7.10;43.70
76537;DHT22;65381;51.254;15.592;2023-06-04T03:40:25;7.20;43.70
76537;DHT22;65381;51.254;15.592;2023-06-04T03:42:53;7.40;43.70
76537;DHT22;65381;51.254;15.592;2023-06-04T03:45:25;7.60;43.80
76537;DHT22;65381;51.254;15.592;2023-06-04T03:47:53;7.90;44.00
76537;DHT22;65381;51.254;15.592;2023-06-04T03:50:21;8.20;44.20
76537;DHT22;65381;51.254;15.592;2023-06-04T03:52:51;8.60;44.20
76537;DHT22;65381;51.254;15.592;2023-06-04T03:55:19;9.00;44.30
76537;DHT22;65381;51.254;15.592;2023-06-04T03:57:49;9.40;44.30
76537;DHT22;65381;51.254;15.592;2023-06-04T04:00:18;10.00;44.20
76537;DHT22;65381;51.254;15.592;2023-06-04T04:02:50;10.40;44.00
76537;DHT22;65381;51.254;15.592;2023-06-04T04:05:22;10.90;43.90
76537;DHT22;65381;51.254;15.592;2023-06-04T04:07:51;11.30;43.80
76537;DHT22;65381;51.254;15.592;2023-06-04T04:10:30;11.70;43.70
76537;DHT22;65381;51.254;15.592;2023-06-04T04:12:58;12.10;43.60
76537;DHT22;65381;51.254;15.592;2023-06-04T04:15:30;12.50;43.50
76537;DHT22;65381;51.254;15.592;2023-06-04T04:18:00;13.00;43.40
76537;DHT22;65381;51.254;15.592;2023-06-04T04:20:29;13.30;43.30
76537;DHT22;65381;51.254;15.592;2023-06-04T04:23:02;13.60;43.20
76537;DHT22;65381;51.254;15.592;2023-06-04T04:25:30;13.90;43.20
76537;DHT22;65381;51.254;15.592;2023-06-04T04:28:02;14.20;43.20
76537;DHT22;65381;51.254;15.592;2023-06-04T04:30:35;14.60;43.10
76537;DHT22;65381;51.254;15.592;2023-06-04T04:33:04;15.00;42.90
76537;DHT22;65381;51.254;15.592;2023-06-04T04:35:38;15.40;42.90
76537;DHT22;65381;51.254;15.592;2023-06-04T04:38:08;15.80;42.70
76537;DHT22;65381;51.254;15.592;2023-06-04T04:40:44;16.10;42.60
76537;DHT22;65381;51.254;15.592;2023-06-04T04:43:16;16.60;42.50
76537;DHT22;65381;51.254;15.592;2023-06-04T04:45:43;17.10;42.30
76537;DHT22;65381;51.254;15.592;2023-06-04T04:48:11;17.50;42.20
76537;DHT22;65381;51.254;15.592;2023-06-04T04:50:39;17.90;42.00
76537;DHT22;65381;51.254;15.592;2023-06-04T04:53:08;18.30;41.90
76537;DHT22;65381;51.254;15.592;2023-06-04T04:55:37;18.60;41.60
76537;DHT22;65381;51.254;15.592;2023-06-04T04:58:05;19.00;41.50
76537;DHT22;65381;51.254;15.592;2023-06-04T05:00:33;19.40;41.50
76537;DHT22;65381;51.254;15.592;2023-06-04T05:03:02;19.90;41.30
76537;DHT22;65381;51.254;15.592;2023-06-04T05:05:32;20.30;41.00
76537;DHT22;65381;51.254;15.592;2023-06-04T05:08:02;20.80;40.80
76537;DHT22;65381;51.254;15.592;2023-06-04T05:10:33;21.30;40.50
76537;DHT22;65381;51.254;15.592;2023-06-04T05:13:04;21.70;40.30
76537;DHT22;65381;51.254;15.592;2023-06-04T05:15:43;21.80;40.10
76537;DHT22;65381;51.254;15.592;2023-06-04T05:18:13;22.00;40.00
76537;DHT22;65381;51.254;15.592;2023-06-04T05:20:44;22.00;39.80
76537;DHT22;65381;51.254;15.592;2023-06-04T05:23:12;21.90;39.70
76537;DHT22;65381;51.254;15.592;2023-06-04T05:25:43;21.90;39.70
76537;DHT22;65381;51.254;15.592;2023-06-04T05:28:12;21.90;39.60
76537;DHT22;65381;51.254;15.592;2023-06-04T05:30:40;21.90;39.40
76537;DHT22;65381;51.254;15.592;2023-06-04T05:33:10;21.90;39.40
76537;DHT22;65381;51.254;15.592;2023-06-04T05:35:54;21.90;39.30
76537;DHT22;65381;51.254;15.592;2023-06-04T05:38:28;22.10;39.20
76537;DHT22;65381;51.254;15.592;2023-06-04T05:41:03;22.50;39.20
76537;DHT22;65381;51.254;15.592;2023-06-04T05:43:35;23.10;39.00
76537;DHT22;65381;51.254;15.592;2023-06-04T05:46:03;23.50;38.70
76537;DHT22;65381;51.254;15.592;2023-06-04T05:48:32;23.90;38.40
76537;DHT22;65381;51.254;15.592;2023-06-04T05:51:00;24.00;38.00
76537;DHT22;65381;51.254;15.592;2023-06-04T05:53:29;24.40;37.60
76537;DHT22;65381;51.254;15.592;2023-06-04T05:55:56;24.70;37.10
76537;DHT22;65381;51.254;15.592;2023-06-04T05:58:25;25.50;36.60
76537;DHT22;65381;51.254;15.592;2023-06-04T06:00:52;26.40;36.10
76537;DHT22;65381;51.254;15.592;2023-06-04T06:03:22;27.10;35.50
76537;DHT22;65381;51.254;15.592;2023-06-04T06:05:50;27.50;34.80
76537;DHT22;65381;51.254;15.592;2023-06-04T06:08:18;27.50;34.40
76537;DHT22;65381;51.254;15.592;2023-06-04T06:10:46;27.50;34.60
76537;DHT22;65381;51.254;15.592;2023-06-04T06:13:14;27.80;34.60
76537;DHT22;65381;51.254;15.592;2023-06-04T06:15:43;28.10;34.40
76537;DHT22;65381;51.254;15.592;2023-06-04T06:18:11;28.70;34.20
76537;DHT22;65381;51.254;15.592;2023-06-04T06:20:39;29.20;34.00
76537;DHT22;65381;51.254;15.592;2023-06-04T06:23:09;29.90;33.70
76537;DHT22;65381;51.254;15.592;2023-06-04T06:25:41;30.30;33.20
76537;DHT22;65381;51.254;15.592;2023-06-04T06:28:15;30.50;33.00
76537;DHT22;65381;51.254;15.592;2023-06-04T06:30:45;30.40;32.60
76537;DHT22;65381;51.254;15.592;2023-06-04T06:33:13;30.20;32.80
76537;DHT22;65381;51.254;15.592;2023-06-04T06:35:41;30.50;32.70
76537;DHT22;65381;51.254;15.592;2023-06-04T06:38:09;30.80;32.60
76537;DHT22;65381;51.254;15.592;2023-06-04T06:40:37;31.10;31.90
76537;DHT22;65381;51.254;15.592;2023-06-04T06:43:05;31.10;32.00
76537;DHT22;65381;51.254;15.592;2023-06-04T06:45:33;31.30;31.80
76537;DHT22;65381;51.254;15.592;2023-06-04T06:48:04;31.00;31.40
76537;DHT22;65381;51.254;15.592;2023-06-04T06:50:32;30.60;31.20
76537;DHT22;65381;51.254;15.592;2023-06-04T06:53:03;30.60;31.40
76537;DHT22;65381;51.254;15.592;2023-06-04T06:55:31;30.90;31.20
76537;DHT22;65381;51.254;15.592;2023-06-04T06:57:59;31.30;31.30
76537;DHT22;65381;51.254;15.592;2023-06-04T07:00:27;32.00;30.80
76537;DHT22;65381;51.254;15.592;2023-06-04T07:02:55;32.20;30.50
76537;DHT22;65381;51.254;15.592;2023-06-04T07:05:24;32.40;30.60
76537;DHT22;65381;51.254;15.592;2023-06-04T07:07:52;32.90;30.40
76537;DHT22;65381;51.254;15.592;2023-06-04T07:10:20;33.60;30.20
76537;DHT22;65381;51.254;15.592;2023-06-04T07:12:48;34.00;29.60
76537;DHT22;65381;51.254;15.592;2023-06-04T07:15:16;33.60;29.70
76537;DHT22;65381;51.254;15.592;2023-06-04T07:17:44;33.60;29.60
76537;DHT22;65381;51.254;15.592;2023-06-04T07:20:12;33.00;29.00
76537;DHT22;65381;51.254;15.592;2023-06-04T07:22:40;32.80;29.50
76537;DHT22;65381;51.254;15.592;2023-06-04T07:25:08;32.90;29.40
76537;DHT22;65381;51.254;15.592;2023-06-04T07:27:36;33.20;29.30
76537;DHT22;65381;51.254;15.592;2023-06-04T07:30:07;33.00;29.00
76537;DHT22;65381;51.254;15.592;2023-06-04T07:32:35;33.20;29.20
76537;DHT22;65381;51.254;15.592;2023-06-04T07:35:04;33.60;28.90
76537;DHT22;65381;51.254;15.592;2023-06-04T07:37:32;33.50;28.50
76537;DHT22;65381;51.254;15.592;2023-06-04T07:40:00;33.50;28.70
76537;DHT22;65381;51.254;15.592;2023-06-04T07:42:28;34.20;28.60
76537;DHT22;65381;51.254;15.592;2023-06-04T07:44:56;35.10;28.10
76537;DHT22;65381;51.254;15.592;2023-06-04T07:47:24;35.60;27.90
76537;DHT22;65381;51.254;15.592;2023-06-04T07:49:52;35.70;27.50
76537;DHT22;65381;51.254;15.592;2023-06-04T07:52:30;35.50;27.50
76537;DHT22;65381;51.254;15.592;2023-06-04T07:54:59;35.50;27.60
76537;DHT22;65381;51.254;15.592;2023-06-04T07:57:27;35.70;26.80
76537;DHT22;65381;51.254;15.592;2023-06-04T07:59:55;35.30;27.20
76537;DHT22;65381;51.254;15.592;2023-06-04T08:02:24;35.60;27.20
76537;DHT22;65381;51.254;15.592;2023-06-04T08:04:53;35.80;26.50
76537;DHT22;65381;51.254;15.592;2023-06-04T08:07:22;35.00;26.20
76537;DHT22;65381;51.254;15.592;2023-06-04T08:09:50;34.20;26.70
76537;DHT22;65381;51.254;15.592;2023-06-04T08:12:19;34.70;26.70
76537;DHT22;65381;51.254;15.592;2023-06-04T08:14:48;34.80;26.50
76537;DHT22;65381;51.254;15.592;2023-06-04T08:17:18;35.10;26.50
76537;DHT22;65381;51.254;15.592;2023-06-04T08:19:46;36.00;26.20
76537;DHT22;65381;51.254;15.592;2023-06-04T08:22:15;36.40;25.90
76537;DHT22;65381;51.254;15.592;2023-06-04T08:24:43;36.30;25.80
76537;DHT22;65381;51.254;15.592;2023-06-04T08:27:12;36.50;25.80
76537;DHT22;65381;51.254;15.592;2023-06-04T08:29:40;36.90;25.60
76537;DHT22;65381;51.254;15.592;2023-06-04T08:32:08;37.00;25.70
76537;DHT22;65381;51.254;15.592;2023-06-04T08:34:37;37.20;25.60
76537;DHT22;65381;51.254;15.592;2023-06-04T08:37:06;37.40;25.30
76537;DHT22;65381;51.254;15.592;2023-06-04T08:39:34;36.90;25.30
76537;DHT22;65381;51.254;15.592;2023-06-04T08:42:06;36.50;25.60
76537;DHT22;65381;51.254;15.592;2023-06-04T08:44:37;36.80;25.40
76537;DHT22;65381;51.254;15.592;2023-06-04T08:47:11;37.30;25.10
76537;DHT22;65381;51.254;15.592;2023-06-04T08:49:41;37.40;24.90
76537;DHT22;65381;51.254;15.592;2023-06-04T08:52:11;37.60;24.80
76537;DHT22;65381;51.254;15.592;2023-06-04T08:54:39;37.30;24.80
76537;DHT22;65381;51.254;15.592;2023-06-04T08:57:09;37.30;24.80
76537;DHT22;65381;51.254;15.592;2023-06-04T08:59:37;37.70;24.60
76537;DHT22;65381;51.254;15.592;2023-06-04T09:02:05;37.70;24.30
76537;DHT22;65381;51.254;15.592;2023-06-04T09:04:34;37.50;23.80
76537;DHT22;65381;51.254;15.592;2023-06-04T09:07:03;36.90;23.80
76537;DHT22;65381;51.254;15.592;2023-06-04T09:09:38;36.20;23.60
76537;DHT22;65381;51.254;15.592;2023-06-04T09:12:10;35.10;23.40
76537;DHT22;65381;51.254;15.592;2023-06-04T09:14:39;34.00;23.60
76537;DHT22;65381;51.254;15.592;2023-06-04T09:17:07;33.20;23.30
76537;DHT22;65381;51.254;15.592;2023-06-04T09:19:35;32.50;23.30
76537;DHT22;65381;51.254;15.592;2023-06-04T09:22:04;31.90;23.80
76537;DHT22;65381;51.254;15.592;2023-06-04T09:24:41;31.70;23.90
76537;DHT22;65381;51.254;15.592;2023-06-04T09:27:15;31.80;23.90
76537;DHT22;65381;51.254;15.592;2023-06-04T09:29:53;31.60;23.80
76537;DHT22;65381;51.254;15.592;2023-06-04T09:32:25;31.30;24.00
76537;DHT22;65381;51.254;15.592;2023-06-04T09:34:56;31.30;24.00
76537;DHT22;65381;51.254;15.592;2023-06-04T09:37:25;31.30;24.00
76537;DHT22;65381;51.254;15.592;2023-06-04T09:39:55;31.70;24.20
76537;DHT22;65381;51.254;15.592;2023-06-04T09:42:24;32.40;24.10
76537;DHT22;65381;51.254;15.592;2023-06-04T09:44:53;33.00;23.90
76537;DHT22;65381;51.254;15.592;2023-06-04T09:47:21;33.40;23.90
76537;DHT22;65381;51.254;15.592;2023-06-04T09:49:49;33.50;23.50
76537;DHT22;65381;51.254;15.592;2023-06-04T09:52:18;33.10;23.70
76537;DHT22;65381;51.254;15.592;2023-06-04T09:54:48;33.10;23.60
76537;DHT22;65381;51.254;15.592;2023-06-04T09:57:18;33.20;23.50
76537;DHT22;65381;51.254;15.592;2023-06-04T09:59:54;33.60;23.60
76537;DHT22;65381;51.254;15.592;2023-06-04T10:02:24;34.80;23.30
76537;DHT22;65381;51.254;15.592;2023-06-04T10:04:55;35.40;23.20
76537;DHT22;65381;51.254;15.592;2023-06-04T10:07:26;35.60;23.00
76537;DHT22;65381;51.254;15.592;2023-06-04T10:09:54;36.00;23.00
76537;DHT22;65381;51.254;15.592;2023-06-04T10:12:26;36.50;22.90
76537;DHT22;65381;51.254;15.592;2023-06-04T10:15:16;36.80;22.80
76537;DHT22;65381;51.254;15.592;2023-06-04T10:17:47;37.60;22.70
76537;DHT22;65381;51.254;15.592;2023-06-04T10:20:17;37.90;22.10
76537;DHT22;65381;51.254;15.592;2023-06-04T10:22:48;37.10;22.50
76537;DHT22;65381;51.254;15.592;2023-06-04T10:25:16;37.00;22.40
76537;DHT22;65381;51.254;15.592;2023-06-04T10:27:46;36.90;22.70
76537;DHT22;65381;51.254;15.592;2023-06-04T10:30:14;37.30;22.40
76537;DHT22;65381;51.254;15.592;2023-06-04T10:32:42;37.40;22.40
76537;DHT22;65381;51.254;15.592;2023-06-04T10:35:10;37.30;22.40
76537;DHT22;65381;51.254;15.592;2023-06-04T10:37:39;37.40;22.50
76537;DHT22;65381;51.254;15.592;2023-06-04T10:40:08;37.50;22.30
76537;DHT22;65381;51.254;15.592;2023-06-04T10:42:42;37.20;22.10
76537;DHT22;65381;51.254;15.592;2023-06-04T10:45:10;36.70;22.20
76537;DHT22;65381;51.254;15.592;2023-06-04T10:47:40;37.20;22.10
76537;DHT22;65381;51.254;15.592;2023-06-04T10:50:11;37.50;22.00
76537;DHT22;65381;51.254;15.592;2023-06-04T10:52:53;37.30;22.00
76537;DHT22;65381;51.254;15.592;2023-06-04T10:55:21;36.90;22.20
76537;DHT22;65381;51.254;15.592;2023-06-04T10:57:57;36.50;22.20
76537;DHT22;65381;51.254;15.592;2023-06-04T11:00:39;36.50;22.20
76537;DHT22;65381;51.254;15.592;2023-06-04T11:03:10;36.20;22.10
76537;DHT22;65381;51.254;15.592;2023-06-04T11:05:42;35.90;22.30
76537;DHT22;65381;51.254;15.592;2023-06-04T11:08:11;36.00;22.30
76537;DHT22;65381;51.254;15.592;2023-06-04T11:10:43;36.10;22.10
76537;DHT22;65381;51.254;15.592;2023-06-04T11:13:12;35.90;22.20
76537;DHT22;65381;51.254;15.592;2023-06-04T11:15:45;35.80;22.30
76537;DHT22;65381;51.254;15.592;2023-06-04T11:18:16;36.10;22.20
76537;DHT22;65381;51.254;15.592;2023-06-04T11:20:45;36.40;22.10
76537;DHT22;65381;51.254;15.592;2023-06-04T11:23:14;36.80;22.10
76537;DHT22;65381;51.254;15.592;2023-06-04T11:25:43;37.30;22.00
76537;DHT22;65381;51.254;15.592;2023-06-04T11:28:15;37.10;22.00
76537;DHT22;65381;51.254;15.592;2023-06-04T11:30:59;37.10;21.90
76537;DHT22;65381;51.254;15.592;2023-06-04T11:33:45;37.10;21.90
76537;DHT22;65381;51.254;15.592;2023-06-04T11:36:27;37.50;22.00
76537;DHT22;65381;51.254;15.592;2023-06-04T11:38:57;37.60;21.80
76537;DHT22;65381;51.254;15.592;2023-06-04T11:41:30;37.20;21.90
76537;DHT22;65381;51.254;15.592;2023-06-04T11:44:03;36.90;21.80
76537;DHT22;65381;51.254;15.592;2023-06-04T11:46:43;36.50;22.10
76537;DHT22;65381;51.254;15.592;2023-06-04T11:49:15;36.60;22.10
76537;DHT22;65381;51.254;15.592;2023-06-04T11:51:52;36.10;21.80
76537;DHT22;65381;51.254;15.592;2023-06-04T11:54:21;35.30;22.30
76537;DHT22;65381;51.254;15.592;2023-06-04T11:56:51;34.80;21.90
76537;DHT22;65381;51.254;15.592;2023-06-04T11:59:20;33.50;22.40
76537;DHT22;65381;51.254;15.592;2023-06-04T12:01:48;32.80;22.70
76537;DHT22;65381;51.254;15.592;2023-06-04T12:04:19;32.90;22.70
76537;DHT22;65381;51.254;15.592;2023-06-04T12:06:53;32.80;22.80
76537;DHT22;65381;51.254;15.592;2023-06-04T12:09:29;32.90;22.80
76537;DHT22;65381;51.254;15.592;2023-06-04T12:12:04;33.00;22.80
76537;DHT22;65381;51.254;15.592;2023-06-04T12:14:33;33.00;22.90
76537;DHT22;65381;51.254;15.592;2023-06-04T12:17:05;32.60;23.00
76537;DHT22;65381;51.254;15.592;2023-06-04T12:19:48;32.00;23.20
76537;DHT22;65381;51.254;15.592;2023-06-04T12:22:17;31.80;23.30
76537;DHT22;65381;51.254;15.592;2023-06-04T12:24:49;31.40;23.40
76537;DHT22;65381;51.254;15.592;2023-06-04T12:27:22;31.50;23.50
76537;DHT22;65381;51.254;15.592;2023-06-04T12:30:00;31.90;23.40
76537;DHT22;65381;51.254;15.592;2023-06-04T12:32:28;31.50;23.30
76537;DHT22;65381;51.254;15.592;2023-06-04T12:34:57;31.40;23.50
76537;DHT22;65381;51.254;15.592;2023-06-04T12:37:25;31.50;23.50
76537;DHT22;65381;51.254;15.592;2023-06-04T12:39:54;31.60;23.40
76537;DHT22;65381;51.254;15.592;2023-06-04T12:42:22;31.10;23.50
76537;DHT22;65381;51.254;15.592;2023-06-04T12:44:51;30.30;23.50
76537;DHT22;65381;51.254;15.592;2023-06-04T12:47:19;29.50;23.90
76537;DHT22;65381;51.254;15.592;2023-06-04T12:49:49;29.50;24.00
76537;DHT22;65381;51.254;15.592;2023-06-04T12:52:17;29.90;24.00
76537;DHT22;65381;51.254;15.592;2023-06-04T12:54:46;30.00;23.90
76537;DHT22;65381;51.254;15.592;2023-06-04T12:57:14;29.50;24.10
76537;DHT22;65381;51.254;15.592;2023-06-04T12:59:43;28.90;24.20
76537;DHT22;65381;51.254;15.592;2023-06-04T13:02:11;28.10;24.30
76537;DHT22;65381;51.254;15.592;2023-06-04T13:04:39;27.40;24.50
76537;DHT22;65381;51.254;15.592;2023-06-04T13:07:12;26.90;24.60
76537;DHT22;65381;51.254;15.592;2023-06-04T13:09:41;26.70;24.70
76537;DHT22;65381;51.254;15.592;2023-06-04T13:12:08;26.80;24.70
76537;DHT22;65381;51.254;15.592;2023-06-04T13:14:37;26.90;24.70
76537;DHT22;65381;51.254;15.592;2023-06-04T13:17:05;26.70;24.70
76537;DHT22;65381;51.254;15.592;2023-06-04T13:19:48;26.40;24.70
76537;DHT22;65381;51.254;15.592;2023-06-04T13:22:16;26.30;24.90
76537;DHT22;65381;51.254;15.592;2023-06-04T13:24:44;26.20;24.70
76537;DHT22;65381;51.254;15.592;2023-06-04T13:27:12;26.00;24.80
76537;DHT22;65381;51.254;15.592;2023-06-04T13:29:40;26.00;24.80
76537;DHT22;65381;51.254;15.592;2023-06-04T13:32:11;25.60;25.00
76537;DHT22;65381;51.254;15.592;2023-06-04T13:34:40;25.00;25.10
76537;DHT22;65381;51.254;15.592;2023-06-04T13:37:07;24.70;25.20
76537;DHT22;65381;51.254;15.592;2023-06-04T13:39:39;24.40;25.30
76537;DHT22;65381;51.254;15.592;2023-06-04T13:42:08;24.20;25.40
76537;DHT22;65381;51.254;15.592;2023-06-04T13:44:37;23.80;25.40
76537;DHT22;65381;51.254;15.592;2023-06-04T13:47:05;23.50;25.60
76537;DHT22;65381;51.254;15.592;2023-06-04T13:49:34;23.50;25.60
76537;DHT22;65381;51.254;15.592;2023-06-04T13:52:02;23.40;25.80
76537;DHT22;65381;51.254;15.592;2023-06-04T13:54:31;23.40;25.80
76537;DHT22;65381;51.254;15.592;2023-06-04T13:57:02;23.50;25.80
76537;DHT22;65381;51.254;15.592;2023-06-04T13:59:32;23.40;25.80
76537;DHT22;65381;51.254;15.592;2023-06-04T14:02:00;23.30;25.90
76537;DHT22;65381;51.254;15.592;2023-06-04T14:04:30;23.30;26.00
76537;DHT22;65381;51.254;15.592;2023-06-04T14:06:58;23.10;26.20
76537;DHT22;65381;51.254;15.592;2023-06-04T14:09:26;23.00;26.30
76537;DHT22;65381;51.254;15.592;2023-06-04T14:11:55;22.70;26.50
76537;DHT22;65381;51.254;15.592;2023-06-04T14:14:23;22.80;26.40
76537;DHT22;65381;51.254;15.592;2023-06-04T14:16:51;22.70;26.60
76537;DHT22;65381;51.254;15.592;2023-06-04T14:19:25;22.60;26.60
76537;DHT22;65381;51.254;15.592;2023-06-04T14:21:53;22.70;26.60
76537;DHT22;65381;51.254;15.592;2023-06-04T14:24:21;22.70;26.80
76537;DHT22;65381;51.254;15.592;2023-06-04T14:26:49;22.70;26.80
76537;DHT22;65381;51.254;15.592;2023-06-04T14:29:17;22.60;26.90
76537;DHT22;65381;51.254;15.592;2023-06-04T14:31:46;22.60;26.90
76537;DHT22;65381;51.254;15.592;2023-06-04T14:34:14;22.50;27.10
76537;DHT22;65381;51.254;15.592;2023-06-04T14:36:43;22.60;27.10
76537;DHT22;65381;51.254;15.592;2023-06-04T14:39:11;22.70;27.60
76537;DHT22;65381;51.254;15.592;2023-06-04T14:41:39;22.70;27.50
76537;DHT22;65381;51.254;15.592;2023-06-04T14:44:07;22.60;27.50
76537;DHT22;65381;51.254;15.592;2023-06-04T14:46:35;22.50;27.50
76537;DHT22;65381;51.254;15.592;2023-06-04T14:49:03;22.50;27.60
76537;DHT22;65381;51.254;15.592;2023-06-04T14:51:32;22.50;27.60
76537;DHT22;65381;51.254;15.592;2023-06-04T14:54:00;22.50;27.70
76537;DHT22;65381;51.254;15.592;2023-06-04T14:56:28;22.50;27.70
76537;DHT22;65381;51.254;15.592;2023-06-04T14:59:00;22.40;27.80
76537;DHT22;65381;51.254;15.592;2023-06-04T15:01:28;22.30;27.70
76537;DHT22;65381;51.254;15.592;2023-06-04T15:03:56;22.30;27.70
76537;DHT22;65381;51.254;15.592;2023-06-04T15:06:25;22.20;27.80
76537;DHT22;65381;51.254;15.592;2023-06-04T15:08:53;22.10;27.90
76537;DHT22;65381;51.254;15.592;2023-06-04T15:11:22;22.20;28.00
76537;DHT22;65381;51.254;15.592;2023-06-04T15:13:50;22.20;28.00
76537;DHT22;65381;51.254;15.592;2023-06-04T15:16:18;22.20;28.00
76537;DHT22;65381;51.254;15.592;2023-06-04T15:18:47;22.20;28.20
76537;DHT22;65381;51.254;15.592;2023-06-04T15:21:16;22.10;28.30
76537;DHT22;65381;51.254;15.592;2023-06-04T15:23:44;22.10;28.30
76537;DHT22;65381;51.254;15.592;2023-06-04T15:26:16;22.20;28.30
76537;DHT22;65381;51.254;15.592;2023-06-04T15:28:45;22.20;28.30
76537;DHT22;65381;51.254;15.592;2023-06-04T15:31:13;22.10;28.50
76537;DHT22;65381;51.254;15.592;2023-06-04T15:33:41;22.10;28.50
76537;DHT22;65381;51.254;15.592;2023-06-04T15:36:09;22.10;28.40